createdAt,value
2017-06-22T00:00:18.211Z,8.40
2017-06-22T00:02:46.542Z,7.17
2017-06-22T00:05:14.822Z,9.27
2017-06-22T00:07:43.126Z,6.53
2017-06-22T00:10:11.418Z,7.80
2017-06-22T00:12:39.738Z,6.37
2017-06-22T00:15:08.128Z,6.67
2017-06-22T00:17:36.778Z,6.40
2017-06-22T00:20:05.818Z,6.87
2017-06-22T00:22:34.103Z,5.30
2017-06-22T00:25:03.161Z,7.00
2017-06-22T00:27:31.457Z,7.23
2017-06-22T00:29:59.875Z,6.20
2017-06-22T00:32:28.243Z,6.07
2017-06-22T00:34:57.171Z,6.17
2017-06-22T00:37:25.516Z,7.07
2017-06-22T00:39:53.815Z,6.20
2017-06-22T00:42:22.107Z,10.83
2017-06-22T00:44:50.515Z,6.10
2017-06-22T00:47:18.991Z,5.60
2017-06-22T00:49:47.321Z,7.10
2017-06-22T00:52:15.629Z,6.97
2017-06-22T00:54:43.933Z,7.10
2017-06-22T00:57:12.218Z,9.47
2017-06-22T00:59:42.651Z,6.53
2017-06-22T01:02:10.975Z,6.73
2017-06-22T01:04:46.760Z,7.63
2017-06-22T01:07:15.390Z,6.63
2017-06-22T01:09:43.655Z,7.07
2017-06-22T01:12:12.771Z,6.50
2017-06-22T01:14:41.047Z,6.90
2017-06-22T01:17:09.430Z,7.00
2017-06-22T01:19:37.745Z,7.00
2017-06-22T01:22:06.015Z,7.53
2017-06-22T01:24:34.645Z,6.70
2017-06-22T01:27:03.727Z,6.70
2017-06-22T01:29:33.218Z,6.10
2017-06-22T01:32:01.494Z,7.33
2017-06-22T01:34:29.787Z,6.73
2017-06-22T01:36:58.112Z,8.70
2017-06-22T01:39:26.406Z,6.43
2017-06-22T01:41:54.681Z,7.30
2017-06-22T01:44:23.275Z,7.77
2017-06-22T01:46:52.754Z,6.20
2017-06-22T01:49:21.126Z,7.10
2017-06-22T01:51:49.489Z,7.00
2017-06-22T01:54:17.991Z,6.40
2017-06-22T01:56:46.336Z,6.33
2017-06-22T01:59:15.409Z,7.23
2017-06-22T02:01:43.715Z,6.90
2017-06-22T02:04:12.043Z,7.00
2017-06-22T02:06:40.411Z,6.33
2017-06-22T02:09:09.471Z,7.07
2017-06-22T02:11:37.906Z,7.00
2017-06-22T02:14:06.180Z,6.43
2017-06-22T02:16:34.463Z,5.85
2017-06-22T02:19:02.860Z,5.93
2017-06-22T02:21:31.139Z,7.43
2017-06-22T02:23:59.535Z,7.10
2017-06-22T02:26:27.820Z,6.30
2017-06-22T02:28:56.874Z,6.80
2017-06-22T02:31:25.165Z,7.30
2017-06-22T02:33:54.216Z,6.47
2017-06-22T02:36:22.753Z,6.83
2017-06-22T02:38:51.451Z,7.10
2017-06-22T02:41:21.053Z,6.97
2017-06-22T02:43:49.341Z,6.23
2017-06-22T02:46:18.421Z,6.70
2017-06-22T02:48:46.691Z,7.30
2017-06-22T02:53:53.618Z,6.37
2017-06-22T02:56:22.023Z,6.50
2017-06-22T02:58:51.061Z,6.77
2017-06-22T03:01:19.463Z,6.43
2017-06-22T03:03:47.774Z,6.67
2017-06-22T03:06:16.075Z,6.50
2017-06-22T03:08:45.276Z,7.50
2017-06-22T03:11:13.576Z,6.63
2017-06-22T03:13:42.663Z,6.97
2017-06-22T03:16:10.991Z,6.33
2017-06-22T03:18:39.296Z,6.33
2017-06-22T03:21:07.571Z,6.73
2017-06-22T03:23:36.575Z,6.93
2017-06-22T03:26:05.623Z,7.63
2017-06-22T03:28:33.925Z,6.50
2017-06-22T03:31:02.206Z,6.70
2017-06-22T03:33:30.586Z,7.70
2017-06-22T03:35:58.921Z,6.97
2017-06-22T03:38:27.275Z,7.33
2017-06-22T03:40:55.570Z,6.60
2017-06-22T03:43:23.929Z,6.97
2017-06-22T03:45:53.211Z,6.80
2017-06-22T03:48:21.535Z,6.47
2017-06-22T03:50:50.616Z,8.00
2017-06-22T03:53:19.666Z,7.60
2017-06-22T03:55:48.855Z,7.03
2017-06-22T03:58:17.135Z,7.20
2017-06-22T04:00:45.409Z,7.93
2017-06-22T04:03:13.708Z,6.57
2017-06-22T04:05:42.060Z,8.37
2017-06-22T04:08:10.339Z,6.50
2017-06-22T04:10:38.622Z,7.47
2017-06-22T04:13:06.977Z,7.20
2017-06-22T04:15:35.282Z,7.53
2017-06-22T04:18:03.750Z,7.30
2017-06-22T04:20:32.051Z,8.17
2017-06-22T04:23:00.342Z,8.30
2017-06-22T04:25:28.795Z,6.83
2017-06-22T04:27:57.111Z,7.43
2017-06-22T04:30:25.400Z,7.50
2017-06-22T04:32:53.734Z,6.93
2017-06-22T04:35:22.063Z,6.90
2017-06-22T04:37:52.142Z,7.47
2017-06-22T04:40:20.411Z,7.67
2017-06-22T04:42:48.782Z,7.70
2017-06-22T04:45:17.152Z,7.30
2017-06-22T04:47:45.504Z,7.20
2017-06-22T04:50:13.969Z,7.50
2017-06-22T04:52:42.283Z,7.53
2017-06-22T04:55:10.854Z,8.17
2017-06-22T04:57:39.128Z,7.97
2017-06-22T05:00:07.427Z,7.20
2017-06-22T05:02:36.128Z,7.27
2017-06-22T05:05:04.391Z,7.20
2017-06-22T05:07:33.431Z,8.00
2017-06-22T05:10:01.788Z,7.30
2017-06-22T05:12:30.579Z,7.47
2017-06-22T05:14:58.919Z,7.43
2017-06-22T05:17:27.216Z,7.63
2017-06-22T05:19:56.259Z,7.73
2017-06-22T05:22:24.647Z,7.97
2017-06-22T05:24:53.007Z,7.43
2017-06-22T05:27:21.537Z,7.60
2017-06-22T05:29:49.868Z,7.90
2017-06-22T05:32:18.148Z,8.43
2017-06-22T05:34:46.462Z,7.13
2017-06-22T05:37:15.256Z,8.00
2017-06-22T05:39:43.528Z,7.63
2017-06-22T05:42:11.821Z,7.27
2017-06-22T05:44:40.180Z,8.27
2017-06-22T05:47:08.503Z,7.27
2017-06-22T05:49:37.559Z,7.70
2017-06-22T05:52:07.398Z,6.57
2017-06-22T05:54:36.531Z,7.97
2017-06-22T05:57:04.815Z,7.63
2017-06-22T05:59:33.891Z,7.87
2017-06-22T06:02:02.168Z,7.83
2017-06-22T06:04:31.226Z,8.10
2017-06-22T06:06:59.507Z,8.60
2017-06-22T06:09:28.595Z,7.63
2017-06-22T06:11:57.045Z,18.47
2017-06-22T06:14:26.119Z,7.43
2017-06-22T06:16:54.681Z,8.00
2017-06-22T06:19:23.007Z,7.60
2017-06-22T06:21:51.284Z,7.30
2017-06-22T06:24:19.732Z,7.50
2017-06-22T06:26:48.035Z,7.57
2017-06-22T06:29:16.360Z,7.83
2017-06-22T06:31:44.616Z,14.70
2017-06-22T06:34:12.910Z,7.90
2017-06-22T06:36:41.226Z,7.37
2017-06-22T06:39:09.547Z,7.97
2017-06-22T06:41:37.928Z,7.70
2017-06-22T06:44:06.569Z,8.33
2017-06-22T06:46:34.897Z,8.00
2017-06-22T06:49:03.192Z,13.90
2017-06-22T06:51:31.471Z,8.70
2017-06-22T06:53:59.764Z,9.40
2017-06-22T06:56:28.998Z,8.30
2017-06-22T06:58:58.022Z,8.30
2017-06-22T07:01:27.114Z,8.13
2017-06-22T07:03:55.402Z,8.37
2017-06-22T07:06:23.687Z,6.73
2017-06-22T07:08:51.988Z,10.07
2017-06-22T07:11:20.413Z,9.90
2017-06-22T07:13:48.691Z,7.93
2017-06-22T07:16:17.774Z,7.87
2017-06-22T07:18:46.041Z,7.07
2017-06-22T07:21:14.490Z,7.80
2017-06-22T07:23:42.766Z,9.20
2017-06-22T07:26:11.095Z,7.50
2017-06-22T07:28:40.239Z,8.10
2017-06-22T07:31:08.559Z,7.73
2017-06-22T07:33:36.895Z,9.40
2017-06-22T07:36:05.315Z,10.80
2017-06-22T07:38:33.630Z,9.87
2017-06-22T07:41:01.911Z,7.60
2017-06-22T07:43:30.202Z,7.43
2017-06-22T07:45:58.477Z,8.70
2017-06-22T07:48:26.779Z,8.20
2017-06-22T07:50:55.975Z,8.10
2017-06-22T07:53:24.259Z,7.60
2017-06-22T07:55:52.555Z,10.60
2017-06-22T07:58:20.940Z,8.27
2017-06-22T08:00:49.226Z,7.27
2017-06-22T08:03:17.585Z,6.93
2017-06-22T08:05:45.939Z,8.80
2017-06-22T08:08:14.310Z,8.47
2017-06-22T08:10:42.741Z,8.30
2017-06-22T08:13:11.458Z,7.13
2017-06-22T08:15:39.759Z,7.40
2017-06-22T08:18:08.119Z,7.43
2017-06-22T08:20:37.213Z,8.23
2017-06-22T08:23:05.479Z,8.20
2017-06-22T08:25:33.817Z,7.57
2017-06-22T08:28:02.847Z,7.83
2017-06-22T08:30:31.501Z,8.63
2017-06-22T08:33:01.072Z,7.73
2017-06-22T08:35:29.364Z,7.70
2017-06-22T08:37:57.648Z,7.50
2017-06-22T08:40:25.945Z,7.90
2017-06-22T08:42:54.298Z,8.57
2017-06-22T08:45:22.639Z,7.87
2017-06-22T08:47:51.128Z,8.30
2017-06-22T08:50:19.939Z,8.77
2017-06-22T08:52:48.233Z,9.63
2017-06-22T08:55:16.516Z,11.20
2017-06-22T08:57:44.859Z,9.70
2017-06-22T09:00:13.224Z,9.10
2017-06-22T09:02:41.603Z,8.00
2017-06-22T09:05:10.676Z,8.73
2017-06-22T09:07:40.174Z,7.30
2017-06-22T09:10:08.459Z,7.77
2017-06-22T09:12:37.479Z,8.13
2017-06-22T09:15:05.858Z,8.60
2017-06-22T09:17:34.139Z,8.43
2017-06-22T09:20:02.513Z,8.60
2017-06-22T09:22:30.887Z,8.67
2017-06-22T09:24:59.259Z,8.20
2017-06-22T09:27:27.672Z,7.40
2017-06-22T09:29:55.963Z,8.50
2017-06-22T09:32:24.256Z,8.00
2017-06-22T09:34:53.113Z,8.70
2017-06-22T09:37:21.393Z,9.30
2017-06-22T09:39:50.443Z,8.17
2017-06-22T09:42:19.490Z,8.63
2017-06-22T09:44:47.779Z,9.00
2017-06-22T09:47:16.864Z,9.00
2017-06-22T09:49:46.032Z,9.43
2017-06-22T09:52:14.416Z,9.10
2017-06-22T09:54:42.775Z,9.13
2017-06-22T09:57:11.824Z,8.87
2017-06-22T09:59:40.147Z,9.13
2017-06-22T10:02:08.463Z,9.23
2017-06-22T10:04:36.804Z,9.77
2017-06-22T10:07:06.149Z,9.97
2017-06-22T10:09:34.481Z,9.30
2017-06-22T10:12:02.835Z,8.77
2017-06-22T10:14:31.343Z,10.07
2017-06-22T10:16:59.735Z,10.57
2017-06-22T10:19:28.037Z,9.97
2017-06-22T10:21:57.098Z,9.13
2017-06-22T10:24:25.378Z,9.97
2017-06-22T10:26:54.502Z,10.17
2017-06-22T10:29:22.799Z,10.10
2017-06-22T10:31:51.082Z,9.70
2017-06-22T10:34:20.163Z,9.37
2017-06-22T10:36:48.536Z,9.40
2017-06-22T10:39:17.740Z,9.80
2017-06-22T10:41:46.084Z,10.97
2017-06-22T10:44:15.015Z,9.13
2017-06-22T10:46:43.362Z,9.60
2017-06-22T10:49:11.657Z,8.67
2017-06-22T10:51:39.937Z,9.13
2017-06-22T10:54:08.235Z,10.13
2017-06-22T10:56:36.635Z,10.10
2017-06-22T10:59:05.052Z,9.57
2017-06-22T11:01:33.431Z,10.17
2017-06-22T11:04:02.009Z,9.40
2017-06-22T11:06:31.303Z,9.80
2017-06-22T11:08:59.583Z,10.90
2017-06-22T11:11:27.888Z,9.90
2017-06-22T11:13:56.179Z,9.80
2017-06-22T11:16:24.468Z,9.47
2017-06-22T11:18:52.779Z,10.47
2017-06-22T11:21:21.084Z,10.17
2017-06-22T11:23:49.375Z,9.50
2017-06-22T11:26:18.432Z,9.60
2017-06-22T11:28:46.730Z,10.03
2017-06-22T11:31:15.792Z,9.60
2017-06-22T11:33:44.161Z,9.07
2017-06-22T11:36:13.224Z,10.13
2017-06-22T11:38:41.513Z,11.07
2017-06-22T11:41:10.578Z,10.10
2017-06-22T11:43:39.524Z,10.13
2017-06-22T11:46:07.828Z,10.30
2017-06-22T11:48:36.916Z,9.70
2017-06-22T11:51:05.212Z,10.17
2017-06-22T11:53:33.539Z,10.63
2017-06-22T11:56:02.585Z,9.90
2017-06-22T11:58:30.939Z,10.10
2017-06-22T12:00:59.331Z,10.50
2017-06-22T12:03:28.399Z,9.60
2017-06-22T12:05:56.779Z,9.83
2017-06-22T12:08:25.849Z,9.60
2017-06-22T12:10:54.122Z,10.13
2017-06-22T12:13:23.198Z,10.13
2017-06-22T12:15:52.321Z,10.30
2017-06-22T12:18:20.616Z,9.90
2017-06-22T12:20:48.935Z,9.90
2017-06-22T12:23:17.254Z,9.83
2017-06-22T12:25:45.556Z,10.40
2017-06-22T12:28:13.840Z,9.20
2017-06-22T12:30:42.136Z,10.17
2017-06-22T12:33:10.616Z,9.40
2017-06-22T12:35:39.717Z,10.40
2017-06-22T12:38:08.020Z,10.10
2017-06-22T12:40:36.347Z,11.17
2017-06-22T12:43:04.626Z,10.80
2017-06-22T12:45:32.930Z,10.03
2017-06-22T12:48:01.216Z,10.60
2017-06-22T12:50:29.521Z,9.60
2017-06-22T12:52:57.807Z,10.43
2017-06-22T12:55:26.119Z,9.87
2017-06-22T12:57:54.470Z,10.00
2017-06-22T13:00:22.823Z,9.97
2017-06-22T13:02:52.108Z,10.67
2017-06-22T13:05:21.147Z,9.33
2017-06-22T13:07:49.472Z,10.90
2017-06-22T13:10:18.523Z,10.13
2017-06-22T13:12:46.826Z,10.43
2017-06-22T13:15:15.848Z,9.93
2017-06-22T13:17:44.239Z,10.87
2017-06-22T13:20:13.294Z,10.27
2017-06-22T13:22:42.844Z,9.90
2017-06-22T13:25:11.185Z,8.70
2017-06-22T13:27:40.592Z,9.80
2017-06-22T13:30:08.931Z,10.07
2017-06-22T13:32:37.215Z,11.60
2017-06-22T13:35:05.510Z,10.40
2017-06-22T13:37:33.800Z,10.13
2017-06-22T13:40:03.033Z,8.73
2017-06-22T13:42:31.364Z,9.30
2017-06-22T13:44:59.659Z,9.67
2017-06-22T13:47:27.961Z,9.20
2017-06-22T13:49:56.303Z,9.00
2017-06-22T13:52:24.699Z,9.80
2017-06-22T13:54:53.751Z,9.67
2017-06-22T13:57:22.037Z,10.10
2017-06-22T13:59:51.133Z,9.57
2017-06-22T14:02:20.162Z,10.30
2017-06-22T14:04:49.253Z,9.73
2017-06-22T14:07:17.539Z,8.83
2017-06-22T14:09:45.911Z,9.47
2017-06-22T14:12:14.362Z,9.03
2017-06-22T14:14:43.462Z,9.27
2017-06-22T14:17:11.743Z,8.90
2017-06-22T14:19:40.046Z,8.53
2017-06-22T14:22:08.319Z,9.07
2017-06-22T14:24:36.816Z,9.37
2017-06-22T14:27:05.101Z,10.00
2017-06-22T14:29:33.390Z,9.60
2017-06-22T14:32:01.739Z,10.27
2017-06-22T14:34:30.053Z,10.30
2017-06-22T14:36:58.324Z,10.00
2017-06-22T14:39:26.611Z,9.10
2017-06-22T14:41:54.910Z,9.80
2017-06-22T14:44:23.193Z,9.73
2017-06-22T14:46:52.247Z,9.43
2017-06-22T14:49:20.533Z,9.00
2017-06-22T14:51:49.599Z,10.00
2017-06-22T14:54:18.679Z,8.93
2017-06-22T14:56:47.111Z,9.43
2017-06-22T14:59:15.626Z,9.10
2017-06-22T15:01:45.627Z,9.27
2017-06-22T15:04:13.912Z,9.07
2017-06-22T15:06:42.202Z,9.73
2017-06-22T15:09:10.492Z,9.57
2017-06-22T15:11:38.781Z,8.90
2017-06-22T15:14:07.836Z,8.57
2017-06-22T15:16:36.113Z,8.77
2017-06-22T15:19:04.403Z,8.90
2017-06-22T15:21:32.853Z,10.10
2017-06-22T15:24:01.947Z,9.13
2017-06-22T15:26:30.234Z,9.00
2017-06-22T15:28:58.527Z,9.60
2017-06-22T15:31:26.816Z,9.60
2017-06-22T15:33:55.882Z,9.87
2017-06-22T15:36:24.163Z,10.17
2017-06-22T15:38:52.468Z,8.93
2017-06-22T15:41:20.747Z,9.77
2017-06-22T15:43:49.035Z,9.27
2017-06-22T15:46:18.096Z,9.10
2017-06-22T15:48:46.387Z,9.47
2017-06-22T15:51:17.514Z,9.77
2017-06-22T15:53:46.596Z,9.33
2017-06-22T15:56:14.867Z,9.93
2017-06-22T15:58:43.351Z,10.30
2017-06-22T16:01:11.651Z,10.40
2017-06-22T16:03:39.956Z,10.30
2017-06-22T16:06:08.255Z,10.50
2017-06-22T16:08:36.535Z,10.30
2017-06-22T16:11:04.834Z,10.43
2017-06-22T16:13:33.127Z,10.77
2017-06-22T16:16:01.431Z,10.17
2017-06-22T16:18:30.017Z,10.90
2017-06-22T16:20:58.602Z,11.93
2017-06-22T16:23:26.886Z,10.77
2017-06-22T16:25:55.178Z,11.73
2017-06-22T16:28:23.487Z,10.90
2017-06-22T16:30:51.780Z,12.03
2017-06-22T16:33:20.088Z,11.53
2017-06-22T16:35:49.139Z,11.70
2017-06-22T16:38:17.443Z,11.53
2017-06-22T16:40:45.906Z,12.30
2017-06-22T16:43:14.980Z,12.63
2017-06-22T16:45:43.293Z,11.47
2017-06-22T16:48:11.600Z,10.63
2017-06-22T16:50:40.039Z,12.90
2017-06-22T16:53:08.352Z,12.20
2017-06-22T16:55:36.658Z,12.53
2017-06-22T16:58:04.983Z,13.00
2017-06-22T17:00:33.324Z,13.00
2017-06-22T17:03:01.675Z,11.73
2017-06-22T17:05:30.043Z,9.93
2017-06-22T17:07:59.087Z,9.43
2017-06-22T17:10:27.415Z,8.60
2017-06-22T17:12:55.687Z,10.23
2017-06-22T17:15:24.120Z,8.93
2017-06-22T17:17:53.180Z,10.10
2017-06-22T17:20:21.484Z,9.20
2017-06-22T17:22:49.759Z,8.20
2017-06-22T17:25:18.055Z,7.77
2017-06-22T17:27:46.372Z,7.70
2017-06-22T17:30:14.666Z,9.33
2017-06-22T17:32:42.944Z,7.17
2017-06-22T17:35:11.238Z,7.20
2017-06-22T17:37:39.638Z,7.60
2017-06-22T17:40:08.033Z,7.57
2017-06-22T17:42:37.195Z,7.43
2017-06-22T17:45:05.523Z,6.70
2017-06-22T17:47:33.825Z,7.90
2017-06-22T17:50:02.156Z,7.00
2017-06-22T17:52:31.293Z,6.70
2017-06-22T17:54:59.631Z,6.90
2017-06-22T17:57:27.933Z,6.63
2017-06-22T17:59:57.005Z,6.13
2017-06-22T18:02:26.075Z,6.50
2017-06-22T18:04:54.358Z,5.40
2017-06-22T18:07:22.679Z,7.33
2017-06-22T18:09:50.946Z,5.63
2017-06-22T18:12:19.243Z,6.13
2017-06-22T18:14:48.287Z,5.43
2017-06-22T18:17:16.591Z,5.87
2017-06-22T18:19:44.867Z,6.30
2017-06-22T18:22:13.167Z,5.20
2017-06-22T18:24:41.515Z,5.37
2017-06-22T18:27:09.787Z,5.17
2017-06-22T18:29:38.208Z,5.63
2017-06-22T18:32:06.490Z,5.80
2017-06-22T18:34:34.848Z,5.50
2017-06-22T18:37:03.128Z,6.87
2017-06-22T18:39:31.428Z,6.07
2017-06-22T18:41:59.722Z,6.47
2017-06-22T18:44:28.179Z,6.17
2017-06-22T18:46:56.481Z,6.27
2017-06-22T18:49:24.779Z,6.43
2017-06-22T18:51:53.164Z,5.70
2017-06-22T18:54:22.222Z,5.40
2017-06-22T18:56:50.504Z,6.00
2017-06-22T18:59:18.906Z,6.43
2017-06-22T19:01:47.224Z,6.37
2017-06-22T19:04:16.287Z,6.67
2017-06-22T19:06:45.208Z,7.03
2017-06-22T19:09:13.516Z,5.87
2017-06-22T19:11:41.815Z,7.00
2017-06-22T19:14:10.126Z,7.50
2017-06-22T19:16:38.430Z,7.93
2017-06-22T19:19:07.483Z,6.87
2017-06-22T19:21:35.780Z,8.00
2017-06-22T19:24:04.059Z,7.47
2017-06-22T19:26:32.440Z,7.70
2017-06-22T19:29:00.762Z,8.77
2017-06-22T19:31:29.265Z,7.83
2017-06-22T19:33:57.519Z,8.50
2017-06-22T19:36:25.820Z,9.40
2017-06-22T19:38:54.111Z,8.93
2017-06-22T19:41:22.477Z,10.40
2017-06-22T19:43:50.958Z,11.90
2017-06-22T19:46:19.244Z,11.60
2017-06-22T19:48:47.553Z,13.10
2017-06-22T19:51:15.975Z,15.03
2017-06-22T19:53:44.255Z,13.93
2017-06-22T19:56:12.546Z,14.40
2017-06-22T19:58:40.900Z,15.27
2017-06-22T20:01:09.966Z,13.73
2017-06-22T20:03:38.259Z,14.63
2017-06-22T20:06:06.548Z,15.47
2017-06-22T20:08:34.915Z,13.77
2017-06-22T20:11:03.215Z,15.50
2017-06-22T20:13:31.500Z,22.47
2017-06-22T20:16:00.007Z,16.97
2017-06-22T20:18:28.280Z,15.27
2017-06-22T20:20:56.579Z,13.85
2017-06-22T20:23:25.752Z,14.10
2017-06-22T20:25:54.069Z,13.60
2017-06-22T20:28:22.366Z,14.30
2017-06-22T20:30:51.923Z,14.50
2017-06-22T20:33:21.064Z,14.93
2017-06-22T20:35:49.623Z,13.35
2017-06-22T20:38:17.939Z,12.90
2017-06-22T20:40:46.247Z,13.82
2017-06-22T20:43:15.328Z,12.13
2017-06-22T20:45:43.640Z,13.05
2017-06-22T20:48:12.045Z,12.35
2017-06-22T20:50:40.339Z,12.52
2017-06-22T20:53:08.663Z,12.80
2017-06-22T20:55:36.953Z,13.23
2017-06-22T20:58:06.023Z,13.27
2017-06-22T21:00:35.099Z,12.07
2017-06-22T21:03:04.269Z,13.85
2017-06-22T21:05:32.575Z,10.25
2017-06-22T21:08:01.079Z,11.40
2017-06-22T21:10:29.421Z,14.02
2017-06-22T21:12:57.715Z,11.55
2017-06-22T21:15:26.037Z,9.93
2017-06-22T21:17:54.452Z,12.23
2017-06-22T21:20:22.768Z,11.40
2017-06-22T21:22:51.059Z,9.05
2017-06-22T21:25:19.359Z,9.55
2017-06-22T21:27:48.472Z,10.48
2017-06-22T21:30:16.759Z,9.60
2017-06-22T21:32:45.042Z,9.30
2017-06-22T21:35:13.369Z,10.80
2017-06-22T21:37:41.659Z,11.07
2017-06-22T21:40:09.959Z,10.07
2017-06-22T21:42:38.266Z,10.38
2017-06-22T21:45:06.696Z,10.52
2017-06-22T21:47:35.014Z,10.93
2017-06-22T21:50:03.311Z,9.82
2017-06-22T21:52:32.364Z,10.07
2017-06-22T21:55:00.663Z,10.30
2017-06-22T21:57:29.027Z,11.00
2017-06-22T21:59:57.319Z,10.43
2017-06-22T22:02:25.623Z,10.10
2017-06-22T22:04:54.103Z,10.82
2017-06-22T22:07:22.408Z,8.70
2017-06-22T22:09:50.771Z,8.45
2017-06-22T22:12:19.067Z,7.75
2017-06-22T22:14:47.351Z,9.15
2017-06-22T22:17:15.913Z,7.35
2017-06-22T22:19:44.175Z,9.02
2017-06-22T22:22:13.303Z,8.85
2017-06-22T22:24:41.711Z,7.70
2017-06-22T22:27:10.003Z,7.57
2017-06-22T22:29:38.319Z,7.25
2017-06-22T22:32:06.615Z,8.65
2017-06-22T22:34:34.914Z,8.02
2017-06-22T22:37:03.228Z,8.40
2017-06-22T22:39:32.572Z,8.45
2017-06-22T22:42:00.955Z,8.35
2017-06-22T22:44:29.371Z,8.20
2017-06-22T22:46:57.689Z,8.07
2017-06-22T22:49:26.047Z,9.35
2017-06-22T22:51:54.419Z,8.27
2017-06-22T22:54:22.755Z,9.02
2017-06-22T22:56:51.022Z,9.43
2017-06-22T22:59:19.311Z,9.18
2017-06-22T23:01:48.362Z,8.43
2017-06-22T23:04:16.824Z,9.38
2017-06-22T23:06:45.106Z,8.88
2017-06-22T23:09:13.488Z,8.45
2017-06-22T23:11:42.554Z,9.93
2017-06-22T23:14:11.638Z,9.23
2017-06-22T23:16:39.919Z,9.50
2017-06-22T23:19:08.974Z,8.80
2017-06-22T23:21:37.259Z,8.35
2017-06-22T23:24:06.311Z,9.30
2017-06-22T23:26:35.405Z,10.10
2017-06-22T23:29:03.687Z,7.80
2017-06-22T23:31:31.995Z,10.35
2017-06-22T23:34:00.417Z,10.88
2017-06-22T23:36:28.703Z,10.68
2017-06-22T23:38:57.082Z,9.27
2017-06-22T23:41:26.283Z,9.85
2017-06-22T23:43:54.587Z,9.98
2017-06-22T23:46:22.871Z,9.85
2017-06-22T23:48:51.207Z,10.65
2017-06-22T23:51:19.502Z,9.85
2017-06-22T23:53:47.933Z,9.18
2017-06-22T23:56:16.407Z,11.00
2017-06-22T23:58:44.715Z,10.15
